sensor_id;sensor_type;location;lat;lon;timestamp;P1;durP1;ratioP1;P2;durP2;ratioP2
46415;SDS011;32620;51.704;7.822;2023-02-15T00:01:29;61.47;;;32.67;;
46415;SDS011;32620;51.704;7.822;2023-02-15T00:03:55;66.72;;;35.25;;
46415;SDS011;32620;51.704;7.822;2023-02-15T00:06:20;57.78;;;31.38;;
46415;SDS011;32620;51.704;7.822;2023-02-15T00:08:46;60.75;;;32.47;;
46415;SDS011;32620;51.704;7.822;2023-02-15T00:11:13;59.15;;;31.63;;
46415;SDS011;32620;51.704;7.822;2023-02-15T00:13:41;52.17;;;30.08;;
46415;SDS011;32620;51.704;7.822;2023-02-15T00:16:09;57.72;;;31.48;;
46415;SDS011;32620;51.704;7.822;2023-02-15T00:18:36;56.42;;;30.58;;
46415;SDS011;32620;51.704;7.822;2023-02-15T00:21:05;59.03;;;32.13;;
46415;SDS011;32620;51.704;7.822;2023-02-15T00:23:33;53.80;;;30.83;;
46415;SDS011;32620;51.704;7.822;2023-02-15T00:26:03;60.30;;;34.80;;
46415;SDS011;32620;51.704;7.822;2023-02-15T00:28:30;59.17;;;32.88;;
46415;SDS011;32620;51.704;7.822;2023-02-15T00:31:01;56.92;;;31.33;;
46415;SDS011;32620;51.704;7.822;2023-02-15T00:35:56;55.30;;;29.77;;
46415;SDS011;32620;51.704;7.822;2023-02-15T00:38:22;55.03;;;30.95;;
46415;SDS011;32620;51.704;7.822;2023-02-15T00:40:52;68.03;;;32.50;;
46415;SDS011;32620;51.704;7.822;2023-02-15T00:43:19;72.68;;;32.92;;
46415;SDS011;32620;51.704;7.822;2023-02-15T00:45:45;61.42;;;32.78;;
46415;SDS011;32620;51.704;7.822;2023-02-15T00:48:11;54.78;;;30.27;;
46415;SDS011;32620;51.704;7.822;2023-02-15T00:50:36;58.58;;;32.75;;
46415;SDS011;32620;51.704;7.822;2023-02-15T00:53:02;59.50;;;33.75;;
46415;SDS011;32620;51.704;7.822;2023-02-15T00:55:27;60.58;;;32.38;;
46415;SDS011;32620;51.704;7.822;2023-02-15T00:57:53;60.50;;;32.88;;
46415;SDS011;32620;51.704;7.822;2023-02-15T01:00:18;52.15;;;31.17;;
46415;SDS011;32620;51.704;7.822;2023-02-15T01:02:44;60.40;;;31.70;;
46415;SDS011;32620;51.704;7.822;2023-02-15T01:05:09;62.05;;;32.53;;
46415;SDS011;32620;51.704;7.822;2023-02-15T01:07:35;59.63;;;31.40;;
46415;SDS011;32620;51.704;7.822;2023-02-15T01:10:00;62.15;;;31.67;;
46415;SDS011;32620;51.704;7.822;2023-02-15T01:12:26;59.22;;;31.20;;
46415;SDS011;32620;51.704;7.822;2023-02-15T01:14:51;58.72;;;31.10;;
46415;SDS011;32620;51.704;7.822;2023-02-15T01:17:17;53.60;;;30.10;;
46415;SDS011;32620;51.704;7.822;2023-02-15T01:19:42;60.28;;;31.40;;
46415;SDS011;32620;51.704;7.822;2023-02-15T01:22:08;62.70;;;32.22;;
46415;SDS011;32620;51.704;7.822;2023-02-15T01:24:33;58.47;;;31.73;;
46415;SDS011;32620;51.704;7.822;2023-02-15T01:26:59;58.53;;;30.88;;
46415;SDS011;32620;51.704;7.822;2023-02-15T01:29:25;53.97;;;28.13;;
46415;SDS011;32620;51.704;7.822;2023-02-15T01:31:50;54.47;;;29.13;;
46415;SDS011;32620;51.704;7.822;2023-02-15T01:34:15;51.65;;;28.08;;
46415;SDS011;32620;51.704;7.822;2023-02-15T01:36:41;54.80;;;29.98;;
46415;SDS011;32620;51.704;7.822;2023-02-15T01:39:07;47.47;;;26.98;;
46415;SDS011;32620;51.704;7.822;2023-02-15T01:41:34;51.38;;;28.05;;
46415;SDS011;32620;51.704;7.822;2023-02-15T01:44:00;51.63;;;27.65;;
46415;SDS011;32620;51.704;7.822;2023-02-15T01:46:30;52.03;;;27.55;;
46415;SDS011;32620;51.704;7.822;2023-02-15T01:49:01;53.85;;;29.02;;
46415;SDS011;32620;51.704;7.822;2023-02-15T01:51:30;55.70;;;28.35;;
46415;SDS011;32620;51.704;7.822;2023-02-15T01:54:01;50.03;;;28.85;;
46415;SDS011;32620;51.704;7.822;2023-02-15T01:56:36;54.17;;;30.75;;
46415;SDS011;32620;51.704;7.822;2023-02-15T01:59:05;63.17;;;30.10;;
46415;SDS011;32620;51.704;7.822;2023-02-15T02:01:34;56.83;;;30.20;;
46415;SDS011;32620;51.704;7.822;2023-02-15T02:04:09;51.42;;;28.58;;
46415;SDS011;32620;51.704;7.822;2023-02-15T02:06:56;54.78;;;27.60;;
46415;SDS011;32620;51.704;7.822;2023-02-15T02:09:23;51.08;;;26.40;;
46415;SDS011;32620;51.704;7.822;2023-02-15T02:11:49;54.92;;;27.90;;
46415;SDS011;32620;51.704;7.822;2023-02-15T02:14:15;59.75;;;28.90;;
46415;SDS011;32620;51.704;7.822;2023-02-15T02:16:52;51.40;;;27.75;;
46415;SDS011;32620;51.704;7.822;2023-02-15T02:19:37;52.35;;;27.08;;
46415;SDS011;32620;51.704;7.822;2023-02-15T02:25:38;57.55;;;28.08;;
46415;SDS011;32620;51.704;7.822;2023-02-15T02:28:29;49.60;;;26.73;;
46415;SDS011;32620;51.704;7.822;2023-02-15T02:34:56;50.67;;;25.73;;
46415;SDS011;32620;51.704;7.822;2023-02-15T02:40:24;43.65;;;24.75;;
46415;SDS011;32620;51.704;7.822;2023-02-15T02:43:12;49.47;;;26.33;;
46415;SDS011;32620;51.704;7.822;2023-02-15T02:45:56;46.00;;;25.42;;
46415;SDS011;32620;51.704;7.822;2023-02-15T02:48:28;52.03;;;25.63;;
46415;SDS011;32620;51.704;7.822;2023-02-15T02:50:57;51.28;;;27.27;;
46415;SDS011;32620;51.704;7.822;2023-02-15T02:53:22;58.33;;;28.85;;
46415;SDS011;32620;51.704;7.822;2023-02-15T02:55:53;53.78;;;27.95;;
46415;SDS011;32620;51.704;7.822;2023-02-15T03:01:09;52.80;;;28.15;;
46415;SDS011;32620;51.704;7.822;2023-02-15T03:03:44;46.92;;;25.15;;
46415;SDS011;32620;51.704;7.822;2023-02-15T03:06:33;59.28;;;29.63;;
46415;SDS011;32620;51.704;7.822;2023-02-15T03:09:08;55.95;;;29.00;;
46415;SDS011;32620;51.704;7.822;2023-02-15T03:11:46;61.08;;;30.27;;
46415;SDS011;32620;51.704;7.822;2023-02-15T03:14:13;62.30;;;30.77;;
46415;SDS011;32620;51.704;7.822;2023-02-15T03:16:41;62.83;;;30.83;;
46415;SDS011;32620;51.704;7.822;2023-02-15T03:19:12;56.20;;;29.50;;
46415;SDS011;32620;51.704;7.822;2023-02-15T03:21:44;61.30;;;31.65;;
46415;SDS011;32620;51.704;7.822;2023-02-15T03:24:35;67.75;;;32.70;;
46415;SDS011;32620;51.704;7.822;2023-02-15T03:27:07;63.33;;;33.63;;
46415;SDS011;32620;51.704;7.822;2023-02-15T03:29:37;66.75;;;32.70;;
46415;SDS011;32620;51.704;7.822;2023-02-15T03:32:04;62.10;;;30.75;;
46415;SDS011;32620;51.704;7.822;2023-02-15T03:34:33;60.72;;;31.73;;
46415;SDS011;32620;51.704;7.822;2023-02-15T03:37:02;62.05;;;31.45;;
46415;SDS011;32620;51.704;7.822;2023-02-15T03:39:53;56.97;;;29.60;;
46415;SDS011;32620;51.704;7.822;2023-02-15T03:42:41;62.17;;;31.05;;
46415;SDS011;32620;51.704;7.822;2023-02-15T03:45:10;68.47;;;31.63;;
46415;SDS011;32620;51.704;7.822;2023-02-15T03:47:42;61.00;;;31.58;;
46415;SDS011;32620;51.704;7.822;2023-02-15T03:50:13;58.83;;;31.05;;
46415;SDS011;32620;51.704;7.822;2023-02-15T03:53:04;59.65;;;29.60;;
46415;SDS011;32620;51.704;7.822;2023-02-15T03:55:34;65.70;;;31.33;;
46415;SDS011;32620;51.704;7.822;2023-02-15T03:58:00;66.47;;;32.92;;
46415;SDS011;32620;51.704;7.822;2023-02-15T04:00:49;55.53;;;29.15;;
46415;SDS011;32620;51.704;7.822;2023-02-15T04:03:40;56.17;;;29.13;;
46415;SDS011;32620;51.704;7.822;2023-02-15T04:06:14;53.72;;;29.13;;
46415;SDS011;32620;51.704;7.822;2023-02-15T04:08:39;53.70;;;29.30;;
46415;SDS011;32620;51.704;7.822;2023-02-15T04:11:25;57.17;;;29.85;;
46415;SDS011;32620;51.704;7.822;2023-02-15T04:13:50;54.80;;;29.00;;
46415;SDS011;32620;51.704;7.822;2023-02-15T04:16:21;59.25;;;29.15;;
46415;SDS011;32620;51.704;7.822;2023-02-15T04:18:50;67.15;;;30.83;;
46415;SDS011;32620;51.704;7.822;2023-02-15T04:21:35;60.50;;;29.90;;
46415;SDS011;32620;51.704;7.822;2023-02-15T04:24:21;57.67;;;29.00;;
46415;SDS011;32620;51.704;7.822;2023-02-15T04:27:06;54.42;;;27.42;;
46415;SDS011;32620;51.704;7.822;2023-02-15T04:29:32;52.95;;;27.17;;
46415;SDS011;32620;51.704;7.822;2023-02-15T04:31:59;60.33;;;29.13;;
46415;SDS011;32620;51.704;7.822;2023-02-15T04:34:25;57.83;;;27.98;;
46415;SDS011;32620;51.704;7.822;2023-02-15T04:36:51;54.80;;;26.95;;
46415;SDS011;32620;51.704;7.822;2023-02-15T04:39:17;50.10;;;27.23;;
46415;SDS011;32620;51.704;7.822;2023-02-15T04:41:43;49.08;;;26.05;;
46415;SDS011;32620;51.704;7.822;2023-02-15T04:44:09;58.38;;;29.00;;
46415;SDS011;32620;51.704;7.822;2023-02-15T04:46:35;57.17;;;28.20;;
46415;SDS011;32620;51.704;7.822;2023-02-15T04:49:00;62.97;;;30.33;;
46415;SDS011;32620;51.704;7.822;2023-02-15T04:51:26;64.47;;;28.95;;
46415;SDS011;32620;51.704;7.822;2023-02-15T04:53:51;58.03;;;28.10;;
46415;SDS011;32620;51.704;7.822;2023-02-15T04:56:18;52.78;;;29.05;;
46415;SDS011;32620;51.704;7.822;2023-02-15T04:58:44;62.95;;;28.73;;
46415;SDS011;32620;51.704;7.822;2023-02-15T05:01:10;60.08;;;29.30;;
46415;SDS011;32620;51.704;7.822;2023-02-15T05:03:36;54.33;;;27.15;;
46415;SDS011;32620;51.704;7.822;2023-02-15T05:06:02;53.28;;;26.85;;
46415;SDS011;32620;51.704;7.822;2023-02-15T05:08:28;56.80;;;28.67;;
46415;SDS011;32620;51.704;7.822;2023-02-15T05:10:54;52.67;;;28.60;;
46415;SDS011;32620;51.704;7.822;2023-02-15T05:13:20;54.72;;;27.90;;
46415;SDS011;32620;51.704;7.822;2023-02-15T05:15:47;55.15;;;27.30;;
46415;SDS011;32620;51.704;7.822;2023-02-15T05:18:14;52.63;;;27.63;;
46415;SDS011;32620;51.704;7.822;2023-02-15T05:20:39;54.10;;;26.55;;
46415;SDS011;32620;51.704;7.822;2023-02-15T05:23:05;58.05;;;27.52;;
46415;SDS011;32620;51.704;7.822;2023-02-15T05:25:30;55.05;;;27.40;;
46415;SDS011;32620;51.704;7.822;2023-02-15T05:28:16;49.83;;;26.80;;
46415;SDS011;32620;51.704;7.822;2023-02-15T05:30:45;51.90;;;26.58;;
46415;SDS011;32620;51.704;7.822;2023-02-15T05:33:12;53.08;;;26.40;;
46415;SDS011;32620;51.704;7.822;2023-02-15T05:35:38;53.05;;;26.45;;
46415;SDS011;32620;51.704;7.822;2023-02-15T05:38:03;60.75;;;29.65;;
46415;SDS011;32620;51.704;7.822;2023-02-15T05:40:29;57.45;;;28.90;;
46415;SDS011;32620;51.704;7.822;2023-02-15T05:42:55;55.55;;;28.38;;
46415;SDS011;32620;51.704;7.822;2023-02-15T05:45:21;49.00;;;25.95;;
46415;SDS011;32620;51.704;7.822;2023-02-15T05:47:47;50.38;;;26.80;;
46415;SDS011;32620;51.704;7.822;2023-02-15T05:50:12;52.28;;;26.73;;
46415;SDS011;32620;51.704;7.822;2023-02-15T05:52:38;52.13;;;26.30;;
46415;SDS011;32620;51.704;7.822;2023-02-15T05:55:04;50.53;;;26.10;;
46415;SDS011;32620;51.704;7.822;2023-02-15T05:57:30;51.70;;;27.95;;
46415;SDS011;32620;51.704;7.822;2023-02-15T05:59:56;57.75;;;28.25;;
46415;SDS011;32620;51.704;7.822;2023-02-15T06:02:21;49.60;;;26.50;;
46415;SDS011;32620;51.704;7.822;2023-02-15T06:04:47;50.35;;;25.90;;
46415;SDS011;32620;51.704;7.822;2023-02-15T06:07:12;53.88;;;26.58;;
46415;SDS011;32620;51.704;7.822;2023-02-15T06:09:38;49.22;;;26.52;;
46415;SDS011;32620;51.704;7.822;2023-02-15T06:12:04;51.47;;;26.48;;
46415;SDS011;32620;51.704;7.822;2023-02-15T06:14:30;52.17;;;27.83;;
46415;SDS011;32620;51.704;7.822;2023-02-15T06:16:55;55.30;;;27.90;;
46415;SDS011;32620;51.704;7.822;2023-02-15T06:19:21;50.10;;;26.48;;
46415;SDS011;32620;51.704;7.822;2023-02-15T06:21:47;53.15;;;26.50;;
46415;SDS011;32620;51.704;7.822;2023-02-15T06:24:13;51.70;;;26.00;;
46415;SDS011;32620;51.704;7.822;2023-02-15T06:26:39;50.08;;;26.58;;
46415;SDS011;32620;51.704;7.822;2023-02-15T06:29:04;54.75;;;28.00;;
46415;SDS011;32620;51.704;7.822;2023-02-15T06:31:30;55.72;;;27.83;;
46415;SDS011;32620;51.704;7.822;2023-02-15T06:33:55;51.20;;;26.90;;
46415;SDS011;32620;51.704;7.822;2023-02-15T06:36:26;50.00;;;26.33;;
46415;SDS011;32620;51.704;7.822;2023-02-15T06:38:53;52.42;;;27.15;;
46415;SDS011;32620;51.704;7.822;2023-02-15T06:41:19;57.17;;;28.33;;
46415;SDS011;32620;51.704;7.822;2023-02-15T06:43:45;52.75;;;29.88;;
46415;SDS011;32620;51.704;7.822;2023-02-15T06:46:10;54.30;;;27.52;;
46415;SDS011;32620;51.704;7.822;2023-02-15T06:48:36;57.97;;;27.73;;
46415;SDS011;32620;51.704;7.822;2023-02-15T06:51:01;50.75;;;26.67;;
46415;SDS011;32620;51.704;7.822;2023-02-15T06:53:27;56.25;;;29.02;;
46415;SDS011;32620;51.704;7.822;2023-02-15T06:55:52;55.80;;;28.85;;
46415;SDS011;32620;51.704;7.822;2023-02-15T06:58:25;54.03;;;28.20;;
46415;SDS011;32620;51.704;7.822;2023-02-15T07:00:51;57.45;;;28.20;;
46415;SDS011;32620;51.704;7.822;2023-02-15T07:03:17;57.97;;;28.13;;
46415;SDS011;32620;51.704;7.822;2023-02-15T07:05:42;59.58;;;30.13;;
46415;SDS011;32620;51.704;7.822;2023-02-15T07:08:08;72.80;;;35.47;;
46415;SDS011;32620;51.704;7.822;2023-02-15T07:10:34;77.18;;;35.38;;
46415;SDS011;32620;51.704;7.822;2023-02-15T07:12:59;72.55;;;37.10;;
46415;SDS011;32620;51.704;7.822;2023-02-15T07:15:25;80.35;;;38.40;;
46415;SDS011;32620;51.704;7.822;2023-02-15T07:17:50;72.00;;;38.55;;
46415;SDS011;32620;51.704;7.822;2023-02-15T07:20:17;68.53;;;36.80;;
46415;SDS011;32620;51.704;7.822;2023-02-15T07:22:46;63.80;;;35.90;;
46415;SDS011;32620;51.704;7.822;2023-02-15T07:25:12;59.25;;;32.75;;
46415;SDS011;32620;51.704;7.822;2023-02-15T07:27:38;49.80;;;29.02;;
46415;SDS011;32620;51.704;7.822;2023-02-15T07:30:06;49.25;;;27.40;;
46415;SDS011;32620;51.704;7.822;2023-02-15T07:32:33;47.33;;;26.00;;
46415;SDS011;32620;51.704;7.822;2023-02-15T07:34:58;44.58;;;23.77;;
46415;SDS011;32620;51.704;7.822;2023-02-15T07:37:25;37.40;;;23.55;;
46415;SDS011;32620;51.704;7.822;2023-02-15T07:39:51;39.58;;;22.92;;
46415;SDS011;32620;51.704;7.822;2023-02-15T07:42:16;37.10;;;22.90;;
46415;SDS011;32620;51.704;7.822;2023-02-15T07:44:44;33.13;;;21.33;;
46415;SDS011;32620;51.704;7.822;2023-02-15T07:47:10;33.80;;;20.70;;
46415;SDS011;32620;51.704;7.822;2023-02-15T07:49:37;41.75;;;20.90;;
46415;SDS011;32620;51.704;7.822;2023-02-15T07:52:03;31.23;;;19.70;;
46415;SDS011;32620;51.704;7.822;2023-02-15T07:54:28;29.27;;;18.25;;
46415;SDS011;32620;51.704;7.822;2023-02-15T07:56:54;26.83;;;17.92;;
46415;SDS011;32620;51.704;7.822;2023-02-15T07:59:19;32.83;;;18.00;;
46415;SDS011;32620;51.704;7.822;2023-02-15T08:01:45;26.05;;;17.60;;
46415;SDS011;32620;51.704;7.822;2023-02-15T08:04:10;31.05;;;19.42;;
46415;SDS011;32620;51.704;7.822;2023-02-15T08:06:36;26.30;;;17.85;;
46415;SDS011;32620;51.704;7.822;2023-02-15T08:09:04;26.48;;;17.25;;
46415;SDS011;32620;51.704;7.822;2023-02-15T08:11:32;26.27;;;17.80;;
46415;SDS011;32620;51.704;7.822;2023-02-15T08:14:05;27.00;;;17.88;;
46415;SDS011;32620;51.704;7.822;2023-02-15T08:19:26;26.42;;;18.80;;
46415;SDS011;32620;51.704;7.822;2023-02-15T08:21:54;23.80;;;18.30;;
46415;SDS011;32620;51.704;7.822;2023-02-15T08:24:23;27.20;;;18.13;;
46415;SDS011;32620;51.704;7.822;2023-02-15T08:26:50;25.08;;;16.88;;
46415;SDS011;32620;51.704;7.822;2023-02-15T08:29:18;22.60;;;16.70;;
46415;SDS011;32620;51.704;7.822;2023-02-15T08:31:46;24.00;;;17.75;;
46415;SDS011;32620;51.704;7.822;2023-02-15T08:34:13;23.40;;;17.08;;
46415;SDS011;32620;51.704;7.822;2023-02-15T08:36:41;26.15;;;19.02;;
46415;SDS011;32620;51.704;7.822;2023-02-15T08:39:10;30.35;;;18.40;;
46415;SDS011;32620;51.704;7.822;2023-02-15T08:41:37;23.92;;;18.30;;
46415;SDS011;32620;51.704;7.822;2023-02-15T08:44:06;24.25;;;17.80;;
46415;SDS011;32620;51.704;7.822;2023-02-15T08:46:34;24.63;;;16.90;;
46415;SDS011;32620;51.704;7.822;2023-02-15T08:49:01;30.42;;;19.95;;
46415;SDS011;32620;51.704;7.822;2023-02-15T08:51:28;30.85;;;18.67;;
46415;SDS011;32620;51.704;7.822;2023-02-15T08:53:56;26.30;;;18.98;;
46415;SDS011;32620;51.704;7.822;2023-02-15T08:56:25;28.27;;;19.08;;
46415;SDS011;32620;51.704;7.822;2023-02-15T08:58:52;26.30;;;18.45;;
46415;SDS011;32620;51.704;7.822;2023-02-15T09:01:20;27.52;;;17.92;;
46415;SDS011;32620;51.704;7.822;2023-02-15T09:03:48;26.17;;;18.05;;
46415;SDS011;32620;51.704;7.822;2023-02-15T09:06:16;26.13;;;18.30;;
46415;SDS011;32620;51.704;7.822;2023-02-15T09:08:42;27.52;;;18.17;;
46415;SDS011;32620;51.704;7.822;2023-02-15T09:11:09;27.70;;;18.35;;
46415;SDS011;32620;51.704;7.822;2023-02-15T09:13:36;26.20;;;18.65;;
46415;SDS011;32620;51.704;7.822;2023-02-15T09:16:03;29.13;;;18.13;;
46415;SDS011;32620;51.704;7.822;2023-02-15T09:18:31;24.13;;;17.85;;
46415;SDS011;32620;51.704;7.822;2023-02-15T09:21:08;24.33;;;17.65;;
46415;SDS011;32620;51.704;7.822;2023-02-15T09:23:38;28.15;;;19.17;;
46415;SDS011;32620;51.704;7.822;2023-02-15T09:26:09;26.95;;;17.80;;
46415;SDS011;32620;51.704;7.822;2023-02-15T09:28:36;24.40;;;17.70;;
46415;SDS011;32620;51.704;7.822;2023-02-15T09:31:05;23.50;;;17.88;;
46415;SDS011;32620;51.704;7.822;2023-02-15T09:33:36;26.85;;;19.00;;
46415;SDS011;32620;51.704;7.822;2023-02-15T09:36:03;25.75;;;19.42;;
46415;SDS011;32620;51.704;7.822;2023-02-15T09:38:29;28.95;;;18.63;;
46415;SDS011;32620;51.704;7.822;2023-02-15T09:41:00;27.33;;;18.77;;
46415;SDS011;32620;51.704;7.822;2023-02-15T09:43:41;25.90;;;18.60;;
46415;SDS011;32620;51.704;7.822;2023-02-15T09:46:33;25.15;;;18.13;;
46415;SDS011;32620;51.704;7.822;2023-02-15T09:49:17;26.15;;;18.10;;
46415;SDS011;32620;51.704;7.822;2023-02-15T09:51:59;27.80;;;18.15;;
46415;SDS011;32620;51.704;7.822;2023-02-15T09:57:58;26.58;;;18.85;;
46415;SDS011;32620;51.704;7.822;2023-02-15T10:00:42;32.72;;;19.17;;
46415;SDS011;32620;51.704;7.822;2023-02-15T10:03:30;28.67;;;18.55;;
46415;SDS011;32620;51.704;7.822;2023-02-15T10:06:38;30.58;;;18.65;;
46415;SDS011;32620;51.704;7.822;2023-02-15T10:09:44;30.70;;;19.25;;
46415;SDS011;32620;51.704;7.822;2023-02-15T10:12:09;29.75;;;19.45;;
46415;SDS011;32620;51.704;7.822;2023-02-15T10:26:28;30.25;;;19.83;;
46415;SDS011;32620;51.704;7.822;2023-02-15T10:29:02;29.92;;;18.60;;
46415;SDS011;32620;51.704;7.822;2023-02-15T10:34:32;32.97;;;21.35;;
46415;SDS011;32620;51.704;7.822;2023-02-15T10:37:10;28.05;;;18.73;;
46415;SDS011;32620;51.704;7.822;2023-02-15T10:40:06;27.95;;;18.75;;
46415;SDS011;32620;51.704;7.822;2023-02-15T10:42:41;27.17;;;18.90;;
46415;SDS011;32620;51.704;7.822;2023-02-15T10:45:30;30.77;;;19.63;;
46415;SDS011;32620;51.704;7.822;2023-02-15T10:48:16;28.33;;;18.13;;
46415;SDS011;32620;51.704;7.822;2023-02-15T10:51:10;25.33;;;18.10;;
46415;SDS011;32620;51.704;7.822;2023-02-15T10:56:24;28.23;;;18.77;;
46415;SDS011;32620;51.704;7.822;2023-02-15T10:59:04;27.73;;;18.88;;
46415;SDS011;32620;51.704;7.822;2023-02-15T11:01:50;31.88;;;19.63;;
46415;SDS011;32620;51.704;7.822;2023-02-15T11:04:39;31.30;;;19.02;;
46415;SDS011;32620;51.704;7.822;2023-02-15T11:07:20;30.85;;;19.48;;
46415;SDS011;32620;51.704;7.822;2023-02-15T11:09:51;28.52;;;19.45;;
46415;SDS011;32620;51.704;7.822;2023-02-15T11:12:24;29.80;;;19.98;;
46415;SDS011;32620;51.704;7.822;2023-02-15T11:14:57;31.90;;;20.35;;
46415;SDS011;32620;51.704;7.822;2023-02-15T11:17:28;28.65;;;18.88;;
46415;SDS011;32620;51.704;7.822;2023-02-15T11:22:40;28.25;;;18.90;;
46415;SDS011;32620;51.704;7.822;2023-02-15T11:25:14;29.13;;;19.48;;
46415;SDS011;32620;51.704;7.822;2023-02-15T11:27:44;29.70;;;19.23;;
46415;SDS011;32620;51.704;7.822;2023-02-15T11:30:13;30.17;;;19.17;;
46415;SDS011;32620;51.704;7.822;2023-02-15T11:32:45;32.72;;;19.55;;
46415;SDS011;32620;51.704;7.822;2023-02-15T11:35:20;31.42;;;19.70;;
46415;SDS011;32620;51.704;7.822;2023-02-15T11:37:53;29.92;;;19.50;;
46415;SDS011;32620;51.704;7.822;2023-02-15T11:40:36;31.85;;;20.45;;
46415;SDS011;32620;51.704;7.822;2023-02-15T11:43:12;29.45;;;19.38;;
46415;SDS011;32620;51.704;7.822;2023-02-15T11:46:00;29.48;;;18.40;;
46415;SDS011;32620;51.704;7.822;2023-02-15T11:48:26;36.58;;;20.75;;
46415;SDS011;32620;51.704;7.822;2023-02-15T11:50:55;32.35;;;20.63;;
46415;SDS011;32620;51.704;7.822;2023-02-15T11:53:22;35.17;;;20.33;;
46415;SDS011;32620;51.704;7.822;2023-02-15T11:55:53;32.55;;;21.02;;
46415;SDS011;32620;51.704;7.822;2023-02-15T11:58:22;38.53;;;20.48;;
46415;SDS011;32620;51.704;7.822;2023-02-15T12:01:10;32.42;;;20.25;;
46415;SDS011;32620;51.704;7.822;2023-02-15T12:04:06;36.22;;;20.65;;
46415;SDS011;32620;51.704;7.822;2023-02-15T12:06:59;34.20;;;19.70;;
46415;SDS011;32620;51.704;7.822;2023-02-15T12:12:36;36.38;;;20.77;;
46415;SDS011;32620;51.704;7.822;2023-02-15T12:15:03;38.53;;;20.48;;
46415;SDS011;32620;51.704;7.822;2023-02-15T12:17:33;37.83;;;20.30;;
46415;SDS011;32620;51.704;7.822;2023-02-15T12:20:02;35.03;;;19.77;;
46415;SDS011;32620;51.704;7.822;2023-02-15T12:22:33;35.00;;;19.33;;
46415;SDS011;32620;51.704;7.822;2023-02-15T12:25:02;34.03;;;18.33;;
46415;SDS011;32620;51.704;7.822;2023-02-15T12:27:44;34.05;;;20.40;;
46415;SDS011;32620;51.704;7.822;2023-02-15T12:30:20;34.10;;;20.13;;
46415;SDS011;32620;51.704;7.822;2023-02-15T12:32:51;42.67;;;21.20;;
46415;SDS011;32620;51.704;7.822;2023-02-15T12:35:28;36.63;;;20.83;;
46415;SDS011;32620;51.704;7.822;2023-02-15T12:37:57;34.03;;;20.98;;
46415;SDS011;32620;51.704;7.822;2023-02-15T12:40:29;33.50;;;20.17;;
46415;SDS011;32620;51.704;7.822;2023-02-15T12:42:56;37.20;;;19.55;;
46415;SDS011;32620;51.704;7.822;2023-02-15T12:45:24;38.22;;;20.63;;
46415;SDS011;32620;51.704;7.822;2023-02-15T12:50:50;35.88;;;19.10;;
46415;SDS011;32620;51.704;7.822;2023-02-15T12:53:21;34.88;;;19.88;;
46415;SDS011;32620;51.704;7.822;2023-02-15T12:55:59;34.22;;;18.67;;
46415;SDS011;32620;51.704;7.822;2023-02-15T12:58:28;34.50;;;19.75;;
46415;SDS011;32620;51.704;7.822;2023-02-15T13:01:26;32.97;;;19.38;;
46415;SDS011;32620;51.704;7.822;2023-02-15T13:04:15;37.80;;;19.85;;
46415;SDS011;32620;51.704;7.822;2023-02-15T13:06:29;34.75;;;20.15;;
46415;SDS011;32620;51.704;7.822;2023-02-15T13:11:51;36.38;;;21.20;;
46415;SDS011;32620;51.704;7.822;2023-02-15T13:14:18;36.67;;;19.92;;
46415;SDS011;32620;51.704;7.822;2023-02-15T13:16:47;31.33;;;17.85;;
46415;SDS011;32620;51.704;7.822;2023-02-15T13:19:16;36.92;;;19.15;;
46415;SDS011;32620;51.704;7.822;2023-02-15T13:21:46;35.95;;;18.08;;
46415;SDS011;32620;51.704;7.822;2023-02-15T13:26:50;30.17;;;17.02;;
46415;SDS011;32620;51.704;7.822;2023-02-15T13:29:21;33.05;;;17.88;;
46415;SDS011;32620;51.704;7.822;2023-02-15T13:31:50;30.98;;;18.20;;
46415;SDS011;32620;51.704;7.822;2023-02-15T13:34:21;30.90;;;18.15;;
46415;SDS011;32620;51.704;7.822;2023-02-15T13:36:54;32.58;;;18.33;;
46415;SDS011;32620;51.704;7.822;2023-02-15T13:39:53;33.05;;;17.80;;
46415;SDS011;32620;51.704;7.822;2023-02-15T13:42:35;32.33;;;18.45;;
46415;SDS011;32620;51.704;7.822;2023-02-15T13:45:09;32.55;;;17.60;;
46415;SDS011;32620;51.704;7.822;2023-02-15T13:47:55;33.47;;;17.75;;
46415;SDS011;32620;51.704;7.822;2023-02-15T13:53:46;30.70;;;16.38;;
46415;SDS011;32620;51.704;7.822;2023-02-15T13:56:24;28.75;;;14.52;;
46415;SDS011;32620;51.704;7.822;2023-02-15T14:02:33;27.00;;;14.80;;
46415;SDS011;32620;51.704;7.822;2023-02-15T14:08:13;25.63;;;14.18;;
46415;SDS011;32620;51.704;7.822;2023-02-15T14:10:54;27.88;;;14.30;;
46415;SDS011;32620;51.704;7.822;2023-02-15T14:16:03;31.60;;;14.65;;
46415;SDS011;32620;51.704;7.822;2023-02-15T14:21:28;30.20;;;15.48;;
46415;SDS011;32620;51.704;7.822;2023-02-15T14:24:15;29.02;;;14.93;;
46415;SDS011;32620;51.704;7.822;2023-02-15T14:26:51;27.87;;;14.90;;
46415;SDS011;32620;51.704;7.822;2023-02-15T14:30:00;30.65;;;15.43;;
46415;SDS011;32620;51.704;7.822;2023-02-15T14:32:39;33.13;;;15.35;;
46415;SDS011;32620;51.704;7.822;2023-02-15T14:35:16;30.88;;;15.07;;
46415;SDS011;32620;51.704;7.822;2023-02-15T14:37:49;28.38;;;14.70;;
46415;SDS011;32620;51.704;7.822;2023-02-15T14:40:30;29.05;;;15.63;;
46415;SDS011;32620;51.704;7.822;2023-02-15T14:43:32;24.83;;;13.30;;
46415;SDS011;32620;51.704;7.822;2023-02-15T14:46:20;26.38;;;15.00;;
46415;SDS011;32620;51.704;7.822;2023-02-15T14:49:15;27.85;;;15.30;;
46415;SDS011;32620;51.704;7.822;2023-02-15T14:59:56;29.23;;;15.63;;
46415;SDS011;32620;51.704;7.822;2023-02-15T15:05:08;28.52;;;15.30;;
46415;SDS011;32620;51.704;7.822;2023-02-15T15:07:44;30.02;;;15.73;;
46415;SDS011;32620;51.704;7.822;2023-02-15T15:12:51;31.02;;;14.48;;
46415;SDS011;32620;51.704;7.822;2023-02-15T15:15:34;28.77;;;15.00;;
46415;SDS011;32620;51.704;7.822;2023-02-15T15:18:42;30.85;;;16.38;;
46415;SDS011;32620;51.704;7.822;2023-02-15T15:21:08;33.03;;;15.88;;
46415;SDS011;32620;51.704;7.822;2023-02-15T15:23:39;32.50;;;15.32;;
46415;SDS011;32620;51.704;7.822;2023-02-15T15:26:23;28.25;;;14.63;;
46415;SDS011;32620;51.704;7.822;2023-02-15T15:31:38;29.83;;;15.05;;
46415;SDS011;32620;51.704;7.822;2023-02-15T15:37:23;25.17;;;14.25;;
46415;SDS011;32620;51.704;7.822;2023-02-15T15:42:51;26.13;;;12.20;;
46415;SDS011;32620;51.704;7.822;2023-02-15T15:45:45;25.27;;;12.70;;
46415;SDS011;32620;51.704;7.822;2023-02-15T15:48:35;25.33;;;12.80;;
46415;SDS011;32620;51.704;7.822;2023-02-15T15:51:34;20.58;;;11.75;;
46415;SDS011;32620;51.704;7.822;2023-02-15T15:53:55;22.63;;;12.40;;
46415;SDS011;32620;51.704;7.822;2023-02-15T15:56:24;21.95;;;11.90;;
46415;SDS011;32620;51.704;7.822;2023-02-15T15:58:56;28.90;;;13.32;;
46415;SDS011;32620;51.704;7.822;2023-02-15T16:01:26;22.17;;;11.43;;
46415;SDS011;32620;51.704;7.822;2023-02-15T16:03:55;22.75;;;12.73;;
46415;SDS011;32620;51.704;7.822;2023-02-15T16:06:30;21.50;;;11.80;;
46415;SDS011;32620;51.704;7.822;2023-02-15T16:09:09;21.40;;;11.85;;
46415;SDS011;32620;51.704;7.822;2023-02-15T16:11:37;24.35;;;12.88;;
46415;SDS011;32620;51.704;7.822;2023-02-15T16:14:09;20.92;;;12.00;;
46415;SDS011;32620;51.704;7.822;2023-02-15T16:19:03;23.73;;;12.35;;
46415;SDS011;32620;51.704;7.822;2023-02-15T16:21:31;25.17;;;13.38;;